Time;durP1;ratioP1;P1;durP2;ratioP2;P2;SDS_P1;SDS_P2;PMS_P1;PMS_P2;Temp;Humidity;BMP_temperature;BMP_pressure;BME280_temperature;BME280_humidity;BME280_pressure;Samples;Min_cycle;Max_cycle;Signal;HPM_P1;HPM_P2
2023/12/02 06:00:50;;;;;;;13.43;12.03;;;;;;;;;;1748232;28;20873;-75
2023/12/02 06:01:41;;;;;;;14.40;11.10;;;;;;;;;;1743933;28;20465;-75
2023/12/02 06:02:32;;;;;;;15.18;13.60;;;;;;;;;;1741413;28;20218;-75
2023/12/02 06:03:24;;;;;;;15.65;14.00;;;;;;;;;;1743956;28;20202;-75
2023/12/02 06:04:15;;;;;;;15.00;13.50;;;;;;;;;;1741432;28;20226;-74
2023/12/02 06:05:07;;;;;;;16.60;14.90;;;;;;;;;;1741259;28;20278;-74
2023/12/02 06:05:59;;;;;;;18.95;14.48;;;;;;;;;;1751765;28;20193;-75
2023/12/02 06:06:50;;;;;;;15.90;14.30;;;;;;;;;;1753197;28;20208;-74
2023/12/02 06:07:41;;;;;;;15.50;13.90;;;;;;;;;;1741463;28;20641;-75
2023/12/02 06:08:35;;;;;;;14.77;13.27;;;;;;;;;;1741286;28;20256;-74
2023/12/02 06:09:26;;;;;;;14.98;13.50;;;;;;;;;;1748229;28;20204;-75
2023/12/02 06:10:17;;;;;;;15.88;14.18;;;;;;;;;;1755203;28;20190;-75
2023/12/02 06:11:10;;;;;;;16.92;15.10;;;;;;;;;;1752834;28;20202;-75
2023/12/02 06:12:01;;;;;;;16.02;14.35;;;;;;;;;;1754827;28;20202;-74
2023/12/02 06:12:54;;;;;;;15.98;14.38;;;;;;;;;;1746012;28;20248;-75
2023/12/02 06:13:45;;;;;;;16.30;14.57;;;;;;;;;;1741342;28;20547;-75
2023/12/02 06:14:36;;;;;;;16.77;14.70;;;;;;;;;;1742503;28;20203;-74
2023/12/02 06:15:28;;;;;;;16.48;14.80;;;;;;;;;;1755150;28;20204;-74
2023/12/02 06:16:21;;;;;;;15.43;13.82;;;;;;;;;;1754350;28;20217;-75
2023/12/02 06:17:12;;;;;;;15.98;14.25;;;;;;;;;;1752010;28;20198;-75
2023/12/02 06:18:04;;;;;;;16.10;14.50;;;;;;;;;;1755097;28;20229;-75
2023/12/02 06:18:55;;;;;;;15.73;14.02;;;;;;;;;;1749928;28;20225;-74
2023/12/02 06:19:47;;;;;;;15.43;13.85;;;;;;;;;;1751819;28;20593;-74
2023/12/02 06:20:38;;;;;;;16.98;15.07;;;;;;;;;;1749424;28;20617;-74
2023/12/02 06:21:30;;;;;;;16.13;14.43;;;;;;;;;;1744747;28;20203;-75
2023/12/02 06:22:21;;;;;;;15.90;14.20;;;;;;;;;;1753151;28;20202;-75
2023/12/02 06:23:13;;;;;;;15.00;13.40;;;;;;;;;;1748090;28;20256;-75
2023/12/02 06:24:05;;;;;;;15.60;14.00;;;;;;;;;;1750144;28;20205;-74
2023/12/02 06:24:56;;;;;;;20.48;15.50;;;;;;;;;;1741191;28;20671;-75
2023/12/02 06:25:48;;;;;;;17.27;14.13;;;;;;;;;;1751310;28;20205;-74
2023/12/02 06:26:39;;;;;;;16.15;14.45;;;;;;;;;;1748203;28;20686;-74
2023/12/02 06:27:30;;;;;;;16.08;14.38;;;;;;;;;;1754732;28;20206;-75
2023/12/02 06:28:22;;;;;;;16.23;14.63;;;;;;;;;;1750883;28;20224;-74
2023/12/02 06:29:13;;;;;;;16.13;14.52;;;;;;;;;;1755061;28;20212;-75
2023/12/02 06:30:05;;;;;;;16.20;14.48;;;;;;;;;;1754359;28;20198;-75
2023/12/02 06:30:57;;;;;;;15.77;14.02;;;;;;;;;;1743325;28;20200;-74
2023/12/02 06:31:50;;;;;;;18.08;16.08;;;;;;;;;;1752743;28;20196;-74
2023/12/02 06:32:42;;;;;;;17.17;14.07;;;;;;;;;;1748044;28;20202;-75
2023/12/02 06:33:33;;;;;;;16.33;14.13;;;;;;;;;;1750337;28;20217;-74
2023/12/02 06:34:24;;;;;;;15.27;13.77;;;;;;;;;;1747952;28;20263;-75
2023/12/02 06:35:16;;;;;;;15.57;13.85;;;;;;;;;;1748044;28;20810;-75
2023/12/02 06:36:08;;;;;;;16.88;15.10;;;;;;;;;;1751578;28;20201;-75
2023/12/02 06:37:00;;;;;;;16.05;14.43;;;;;;;;;;1754994;28;20221;-74
2023/12/02 06:37:51;;;;;;;16.10;14.40;;;;;;;;;;1750848;28;20234;-75
2023/12/02 06:38:42;;;;;;;15.30;13.70;;;;;;;;;;1752915;28;20251;-75
2023/12/02 06:39:34;;;;;;;16.95;14.95;;;;;;;;;;1749555;28;20190;-75
2023/12/02 06:40:26;;;;;;;14.88;13.35;;;;;;;;;;1750595;28;20315;-75
2023/12/02 06:41:18;;;;;;;15.80;13.98;;;;;;;;;;1749657;28;20200;-75
2023/12/02 06:42:09;;;;;;;16.20;14.10;;;;;;;;;;1749414;28;20190;-75
2023/12/02 06:43:00;;;;;;;15.82;14.13;;;;;;;;;;1749528;28;20747;-74
2023/12/02 06:43:52;;;;;;;15.65;14.05;;;;;;;;;;1748336;28;20210;-75
2023/12/02 06:44:43;;;;;;;16.98;14.52;;;;;;;;;;1748867;28;20198;-75
2023/12/02 06:45:35;;;;;;;16.23;14.52;;;;;;;;;;1749981;28;20268;-74
2023/12/02 06:46:27;;;;;;;17.42;15.63;;;;;;;;;;1745529;28;20673;-75
2023/12/02 06:47:19;;;;;;;16.15;14.45;;;;;;;;;;1748838;28;20207;-76
2023/12/02 06:48:11;;;;;;;16.65;14.45;;;;;;;;;;1748043;28;20206;-75
2023/12/02 06:49:02;;;;;;;15.63;14.02;;;;;;;;;;1745957;28;20206;-75
2023/12/02 06:49:53;;;;;;;15.98;14.30;;;;;;;;;;1741089;28;20621;-75
2023/12/02 06:50:45;;;;;;;15.02;13.45;;;;;;;;;;1741431;28;20197;-75
2023/12/02 06:51:36;;;;;;;15.35;13.85;;;;;;;;;;1748070;28;20199;-75
2023/12/02 06:52:27;;;;;;;15.57;13.98;;;;;;;;;;1748000;28;20263;-75
2023/12/02 06:53:19;;;;;;;15.60;14.10;;;;;;;;;;1742153;28;20214;-75
2023/12/02 06:54:10;;;;;;;16.77;14.98;;;;;;;;;;1749725;28;20198;-75
2023/12/02 06:55:02;;;;;;;16.90;15.20;;;;;;;;;;1750519;28;20260;-74
2023/12/02 06:55:54;;;;;;;16.17;13.82;;;;;;;;;;1747786;28;20198;-74
2023/12/02 06:56:45;;;;;;;15.55;13.98;;;;;;;;;;1745141;28;20203;-74
2023/12/02 06:57:37;;;;;;;14.90;13.32;;;;;;;;;;1740989;28;20218;-75
2023/12/02 06:58:28;;;;;;;16.35;14.35;;;;;;;;;;1744010;28;20222;-75
2023/12/02 06:59:19;;;;;;;16.73;14.50;;;;;;;;;;1747959;28;20873;-74
2023/12/02 07:00:13;;;;;;;15.05;13.48;;;;;;;;;;1747872;28;20198;-74
2023/12/02 07:01:04;;;;;;;15.32;13.73;;;;;;;;;;1744108;28;20203;-75
2023/12/02 07:01:56;;;;;;;15.77;13.50;;;;;;;;;;1754844;28;20198;-75
2023/12/02 07:02:49;;;;;;;15.48;13.88;;;;;;;;;;1747573;28;20204;-75
2023/12/02 07:03:40;;;;;;;16.02;14.32;;;;;;;;;;1747891;28;20198;-75
2023/12/02 07:04:32;;;;;;;14.35;12.30;;;;;;;;;;1744885;28;20263;-76
2023/12/02 07:05:23;;;;;;;15.52;13.88;;;;;;;;;;1748072;28;20581;-75
2023/12/02 07:06:15;;;;;;;15.35;13.75;;;;;;;;;;1749004;28;20186;-75
2023/12/02 07:07:07;;;;;;;16.83;15.13;;;;;;;;;;1747936;28;20191;-75
2023/12/02 07:07:58;;;;;;;15.57;14.00;;;;;;;;;;1746821;28;20226;-75
2023/12/02 07:08:49;;;;;;;17.20;15.40;;;;;;;;;;1747313;28;20193;-75
2023/12/02 07:09:41;;;;;;;15.50;13.77;;;;;;;;;;1754805;28;20569;-75
2023/12/02 07:10:32;;;;;;;15.52;13.88;;;;;;;;;;1748270;28;20203;-75
2023/12/02 07:11:24;;;;;;;16.33;14.63;;;;;;;;;;1748151;28;20289;-75
2023/12/02 07:12:16;;;;;;;16.67;14.95;;;;;;;;;;1749751;28;20202;-74
2023/12/02 07:13:08;;;;;;;16.88;15.07;;;;;;;;;;1747889;28;20252;-75
2023/12/02 07:13:59;;;;;;;14.95;13.35;;;;;;;;;;1744394;28;20207;-75
2023/12/02 07:14:50;;;;;;;17.63;15.55;;;;;;;;;;1749966;28;20657;-75
2023/12/02 07:15:42;;;;;;;16.30;14.52;;;;;;;;;;1746011;28;20268;-75
2023/12/02 07:16:33;;;;;;;17.10;15.30;;;;;;;;;;1741482;28;20214;-75
2023/12/02 07:17:24;;;;;;;17.17;14.75;;;;;;;;;;1754544;28;20276;-75
2023/12/02 07:18:18;;;;;;;16.30;14.60;;;;;;;;;;1748009;28;20217;-75
2023/12/02 07:19:09;;;;;;;17.08;14.85;;;;;;;;;;1745015;28;20209;-75
2023/12/02 07:20:00;;;;;;;16.63;14.63;;;;;;;;;;1740907;28;20625;-75
2023/12/02 07:20:52;;;;;;;17.50;15.65;;;;;;;;;;1747782;28;20229;-74
2023/12/02 07:21:43;;;;;;;16.88;15.07;;;;;;;;;;1750348;28;20214;-75
2023/12/02 07:22:34;;;;;;;17.25;15.45;;;;;;;;;;1747903;28;20963;-75
2023/12/02 07:23:28;;;;;;;18.98;15.82;;;;;;;;;;1745994;28;20201;-75
2023/12/02 07:24:20;;;;;;;15.25;13.50;;;;;;;;;;1749390;28;20550;-74
2023/12/02 07:25:12;;;;;;;17.88;15.98;;;;;;;;;;1747789;28;20224;-75
2023/12/02 07:26:04;;;;;;;18.27;16.48;;;;;;;;;;1753778;28;20212;-74
2023/12/02 07:26:55;;;;;;;18.27;16.23;;;;;;;;;;1755605;28;20197;-74
2023/12/02 07:27:47;;;;;;;17.48;15.60;;;;;;;;;;1745400;28;20218;-75
2023/12/02 07:28:38;;;;;;;18.60;15.38;;;;;;;;;;1749275;28;20446;-75
2023/12/02 07:29:29;;;;;;;19.38;16.55;;;;;;;;;;1745744;28;20244;-75
2023/12/02 07:30:21;;;;;;;19.25;17.27;;;;;;;;;;1756288;28;20194;-75
2023/12/02 07:31:13;;;;;;;20.33;16.60;;;;;;;;;;1746332;28;20199;-75
2023/12/02 07:32:05;;;;;;;17.33;14.98;;;;;;;;;;1744073;28;20226;-75
2023/12/02 07:32:57;;;;;;;18.98;16.10;;;;;;;;;;1748848;28;20195;-75
2023/12/02 07:33:49;;;;;;;20.25;16.80;;;;;;;;;;1749080;28;20557;-75
2023/12/02 07:34:40;;;;;;;19.15;16.77;;;;;;;;;;1750692;28;20194;-74
2023/12/02 07:35:32;;;;;;;20.70;16.65;;;;;;;;;;1749260;28;20194;-75
2023/12/02 07:36:23;;;;;;;18.02;16.13;;;;;;;;;;1749733;28;20206;-75
2023/12/02 07:37:16;;;;;;;19.08;17.08;;;;;;;;;;1747298;28;20647;-75
2023/12/02 07:38:07;;;;;;;18.80;15.77;;;;;;;;;;1754851;28;20202;-75
2023/12/02 07:38:58;;;;;;;19.00;17.00;;;;;;;;;;1750708;28;20263;-74
2023/12/02 07:39:50;;;;;;;19.02;16.80;;;;;;;;;;1749133;28;20206;-74
2023/12/02 07:40:41;;;;;;;18.95;16.98;;;;;;;;;;1750047;28;20222;-75
2023/12/02 07:41:32;;;;;;;17.98;15.07;;;;;;;;;;1749202;28;20206;-75
2023/12/02 07:42:24;;;;;;;16.60;14.52;;;;;;;;;;1746911;28;20195;-74
2023/12/02 07:43:16;;;;;;;18.35;15.65;;;;;;;;;;1742196;28;20203;-74
2023/12/02 07:44:08;;;;;;;20.30;17.25;;;;;;;;;;1742812;28;20727;-75
2023/12/02 07:44:59;;;;;;;20.73;17.67;;;;;;;;;;1749213;28;20576;-75
2023/12/02 07:45:51;;;;;;;20.27;17.85;;;;;;;;;;1749131;28;20210;-75
2023/12/02 07:46:42;;;;;;;19.75;17.20;;;;;;;;;;1742767;28;20218;-75
2023/12/02 07:47:33;;;;;;;19.92;17.35;;;;;;;;;;1750533;28;20245;-75
2023/12/02 07:48:25;;;;;;;18.95;16.92;;;;;;;;;;1753276;28;20190;-76
2023/12/02 07:49:17;;;;;;;20.20;17.15;;;;;;;;;;1752525;28;20202;-75
2023/12/02 07:50:09;;;;;;;21.77;18.08;;;;;;;;;;1750583;28;20202;-74
2023/12/02 07:51:03;;;;;;;22.45;17.83;;;;;;;;;;1752614;28;20194;-75
2023/12/02 07:51:54;;;;;;;19.73;17.17;;;;;;;;;;1751873;28;20198;-75
2023/12/02 07:52:46;;;;;;;19.63;17.55;;;;;;;;;;1752372;28;20213;-73
2023/12/02 07:53:38;;;;;;;20.65;18.45;;;;;;;;;;1748609;28;20295;-75
2023/12/02 07:54:31;;;;;;;21.33;19.02;;;;;;;;;;1751571;28;20249;-75
2023/12/02 07:55:22;;;;;;;19.77;17.27;;;;;;;;;;1748965;28;20313;-74
2023/12/02 07:56:14;;;;;;;19.92;17.50;;;;;;;;;;1745734;28;20545;-75
2023/12/02 07:57:05;;;;;;;19.85;17.35;;;;;;;;;;1751209;28;20543;-75
2023/12/02 07:57:56;;;;;;;19.02;16.95;;;;;;;;;;1746412;28;20253;-74
2023/12/02 07:58:48;;;;;;;20.52;18.42;;;;;;;;;;1749009;28;20198;-75
2023/12/02 07:59:39;;;;;;;20.90;18.70;;;;;;;;;;1750998;28;20202;-74
2023/12/02 08:00:31;;;;;;;20.13;17.70;;;;;;;;;;1747408;28;20255;-75
2023/12/02 08:01:23;;;;;;;19.08;16.95;;;;;;;;;;1751566;28;20244;-74
2023/12/02 08:02:14;;;;;;;20.30;16.40;;;;;;;;;;1749029;28;20214;-75
2023/12/02 08:03:06;;;;;;;20.73;17.52;;;;;;;;;;1748996;28;20606;-75
2023/12/02 08:03:57;;;;;;;18.75;16.25;;;;;;;;;;1748947;28;20203;-74
2023/12/02 08:04:50;;;;;;;19.55;17.05;;;;;;;;;;1751092;28;20198;-77
2023/12/02 08:05:43;;;;;;;18.20;15.52;;;;;;;;;;1749585;28;20829;-78
2023/12/02 08:06:36;;;;;;;18.60;16.60;;;;;;;;;;1752275;28;20280;-78
2023/12/02 08:07:27;;;;;;;20.00;17.80;;;;;;;;;;1751158;28;20363;-78
2023/12/02 08:08:18;;;;;;;18.10;16.20;;;;;;;;;;1752696;28;20681;-78
2023/12/02 08:09:14;;;;;;;18.00;15.98;;;;;;;;;;1747212;28;20199;-77
2023/12/02 08:10:06;;;;;;;20.50;17.90;;;;;;;;;;1755408;28;20670;-79
2023/12/02 08:10:57;;;;;;;18.67;15.73;;;;;;;;;;1746200;28;20186;-79
2023/12/02 08:11:49;;;;;;;17.65;14.85;;;;;;;;;;1746952;28;20205;-78
2023/12/02 08:12:40;;;;;;;18.08;16.08;;;;;;;;;;1747292;28;20615;-79
2023/12/02 08:13:32;;;;;;;18.30;14.82;;;;;;;;;;1746971;28;20196;-78
2023/12/02 08:14:24;;;;;;;16.73;14.60;;;;;;;;;;1743898;28;20252;-79
2023/12/02 08:15:15;;;;;;;19.00;16.15;;;;;;;;;;1743665;28;20223;-79
2023/12/02 08:16:07;;;;;;;17.13;14.80;;;;;;;;;;1742834;28;20774;-79
2023/12/02 08:16:58;;;;;;;17.27;15.45;;;;;;;;;;1743114;28;20218;-78
2023/12/02 08:17:49;;;;;;;17.35;15.55;;;;;;;;;;1743316;28;20633;-78
2023/12/02 08:18:41;;;;;;;18.23;16.20;;;;;;;;;;1746245;28;20210;-79
2023/12/02 08:19:33;;;;;;;16.83;15.13;;;;;;;;;;1749587;28;20202;-79
2023/12/02 08:20:26;;;;;;;15.57;13.90;;;;;;;;;;1747247;28;20230;-78
2023/12/02 08:21:17;;;;;;;17.23;15.40;;;;;;;;;;1741788;28;20214;-79
2023/12/02 08:22:09;;;;;;;16.98;15.18;;;;;;;;;;1741779;28;20199;-80
2023/12/02 08:23:00;;;;;;;18.40;16.42;;;;;;;;;;1743487;28;20199;-80
2023/12/02 08:23:52;;;;;;;17.80;15.48;;;;;;;;;;1748367;28;20191;-80
2023/12/02 08:24:43;;;;;;;15.50;13.90;;;;;;;;;;1745580;28;20659;-80
2023/12/02 08:25:35;;;;;;;16.35;14.60;;;;;;;;;;1749451;28;20256;-80
2023/12/02 08:26:27;;;;;;;16.77;14.70;;;;;;;;;;1747903;28;20199;-81
2023/12/02 08:27:19;;;;;;;16.40;14.70;;;;;;;;;;1742504;28;20199;-81
2023/12/02 08:28:10;;;;;;;15.07;13.45;;;;;;;;;;1742561;28;20203;-81
2023/12/02 08:29:01;;;;;;;16.58;14.77;;;;;;;;;;1745311;28;20273;-81
2023/12/02 08:29:53;;;;;;;15.20;13.55;;;;;;;;;;1746371;28;20272;-81
2023/12/02 08:30:44;;;;;;;18.63;16.05;;;;;;;;;;1742657;28;20207;-81
2023/12/02 08:31:36;;;;;;;17.33;14.60;;;;;;;;;;1747267;28;20198;-80
2023/12/02 08:32:27;;;;;;;17.40;14.95;;;;;;;;;;1743453;28;20214;-80
2023/12/02 08:33:18;;;;;;;17.63;15.75;;;;;;;;;;1742393;28;20205;-78
2023/12/02 08:34:10;;;;;;;18.45;14.70;;;;;;;;;;1742337;28;20195;-78
2023/12/02 08:35:01;;;;;;;18.90;16.20;;;;;;;;;;1742057;28;20203;-78
2023/12/02 08:35:54;;;;;;;18.80;16.80;;;;;;;;;;1745714;28;20261;-79
2023/12/02 08:36:46;;;;;;;18.27;16.35;;;;;;;;;;1750055;28;20198;-79
2023/12/02 08:37:37;;;;;;;19.70;16.85;;;;;;;;;;1748082;28;20717;-78
2023/12/02 08:38:28;;;;;;;21.90;19.05;;;;;;;;;;1742563;28;20203;-78
2023/12/02 08:39:20;;;;;;;19.15;17.10;;;;;;;;;;1742996;28;20218;-79
2023/12/02 08:40:11;;;;;;;20.67;18.45;;;;;;;;;;1749634;28;20209;-78
2023/12/02 08:41:03;;;;;;;20.58;18.40;;;;;;;;;;1749324;28;20227;-79
2023/12/02 08:41:55;;;;;;;23.88;19.02;;;;;;;;;;1748756;28;20226;-80
2023/12/02 08:42:46;;;;;;;20.35;17.10;;;;;;;;;;1749799;28;20206;-81
2023/12/02 08:43:38;;;;;;;19.48;17.38;;;;;;;;;;1745296;28;20230;-80
2023/12/02 08:44:29;;;;;;;20.08;16.90;;;;;;;;;;1742546;28;20318;-80
2023/12/02 08:45:21;;;;;;;19.15;16.88;;;;;;;;;;1742601;28;20215;-80
2023/12/02 08:46:15;;;;;;;20.13;18.05;;;;;;;;;;1742207;28;20199;-79
2023/12/02 08:47:07;;;;;;;20.27;17.60;;;;;;;;;;1744045;28;20206;-80
2023/12/02 08:47:58;;;;;;;20.30;17.25;;;;;;;;;;1749353;28;20260;-80
2023/12/02 08:48:49;;;;;;;20.38;17.67;;;;;;;;;;1749007;28;20199;-79
2023/12/02 08:49:41;;;;;;;22.55;18.88;;;;;;;;;;1742261;28;20220;-79
2023/12/02 08:50:33;;;;;;;20.05;17.27;;;;;;;;;;1742204;28;20199;-79
2023/12/02 08:51:27;;;;;;;19.63;17.52;;;;;;;;;;1748071;28;20663;-80
2023/12/02 08:52:18;;;;;;;22.20;17.95;;;;;;;;;;1749834;28;20669;-79
2023/12/02 08:53:10;;;;;;;20.40;17.90;;;;;;;;;;1744887;28;20290;-80
2023/12/02 08:54:02;;;;;;;21.23;18.27;;;;;;;;;;1742362;28;20203;-80
2023/12/02 08:54:54;;;;;;;19.80;17.80;;;;;;;;;;1745376;28;20213;-79
2023/12/02 08:55:45;;;;;;;21.85;19.55;;;;;;;;;;1745725;28;20199;-79
2023/12/02 08:56:37;;;;;;;19.40;17.35;;;;;;;;;;1741974;28;20201;-80
2023/12/02 08:57:28;;;;;;;21.00;17.83;;;;;;;;;;1742874;28;20656;-79
2023/12/02 08:58:20;;;;;;;19.30;17.27;;;;;;;;;;1746195;28;20609;-79
2023/12/02 08:59:11;;;;;;;19.55;17.48;;;;;;;;;;1741437;28;20218;-79
2023/12/02 09:00:04;;;;;;;20.75;17.55;;;;;;;;;;1742096;28;20663;-80
2023/12/02 09:00:56;;;;;;;20.13;17.90;;;;;;;;;;1741683;28;20256;-79
2023/12/02 09:01:47;;;;;;;19.45;17.23;;;;;;;;;;1741510;28;20199;-80
2023/12/02 09:02:39;;;;;;;21.25;18.95;;;;;;;;;;1741041;28;20288;-80
2023/12/02 09:03:30;;;;;;;20.48;18.00;;;;;;;;;;1741573;28;20203;-80
2023/12/02 09:04:21;;;;;;;18.55;16.55;;;;;;;;;;1741855;28;20935;-80
2023/12/02 09:05:13;;;;;;;16.80;13.70;;;;;;;;;;1744375;28;20199;-82
2023/12/02 09:06:05;;;;;;;18.15;16.25;;;;;;;;;;1747712;28;20209;-81
2023/12/02 09:06:58;;;;;;;17.88;15.98;;;;;;;;;;1742448;28;20655;-81
2023/12/02 09:07:50;;;;;;;22.38;18.88;;;;;;;;;;1742417;28;20229;-78
2023/12/02 09:08:41;;;;;;;20.98;17.75;;;;;;;;;;1742824;28;20218;-79
2023/12/02 09:09:32;;;;;;;20.23;18.02;;;;;;;;;;1743158;28;20199;-78
2023/12/02 09:10:24;;;;;;;20.13;17.25;;;;;;;;;;1748737;28;20202;-79
2023/12/02 09:11:15;;;;;;;20.58;17.48;;;;;;;;;;1750384;28;20206;-77
2023/12/02 09:12:07;;;;;;;20.17;18.08;;;;;;;;;;1746097;28;20226;-78
2023/12/02 09:12:59;;;;;;;18.08;16.17;;;;;;;;;;1750825;28;20202;-78
2023/12/02 09:13:50;;;;;;;21.05;16.10;;;;;;;;;;1748808;28;20217;-77
2023/12/02 09:14:41;;;;;;;17.50;14.68;;;;;;;;;;1743617;28;20261;-77
2023/12/02 09:16:47;;;;;;;18.77;15.93;;;;;;;;;;1756541;28;20555;-79
2023/12/02 09:17:51;;;;;;;19.10;17.10;;;;;;;;;;1753000;28;20222;-79
2023/12/02 09:18:43;;;;;;;19.90;18.00;;;;;;;;;;1750002;28;20228;-78
2023/12/02 09:19:55;;;;;;;17.10;15.30;;;;;;;;;;1750403;28;20209;-79
2023/12/02 09:20:48;;;;;;;18.90;17.10;;;;;;;;;;1748949;28;20682;-78
2023/12/02 09:21:41;;;;;;;18.55;16.65;;;;;;;;;;1749294;28;20206;-78
2023/12/02 09:22:46;;;;;;;18.23;16.40;;;;;;;;;;1749421;28;20202;-79
2023/12/02 09:23:38;;;;;;;17.77;15.88;;;;;;;;;;1750324;28;20198;-81
2023/12/02 09:24:33;;;;;;;17.13;15.18;;;;;;;;;;1750461;28;20815;-80
2023/12/02 09:25:28;;;;;;;17.10;15.30;;;;;;;;;;1749400;28;20206;-80
2023/12/02 09:26:26;;;;;;;16.50;14.75;;;;;;;;;;1750020;28;20264;-81
2023/12/02 09:27:49;;;;;;;17.13;15.35;;;;;;;;;;1750134;28;20707;-80
2023/12/02 09:28:44;;;;;;;16.40;14.88;;;;;;;;;;1749709;28;20285;-79
2023/12/02 09:29:36;;;;;;;18.33;16.48;;;;;;;;;;1749822;28;20228;-81
2023/12/02 09:30:27;;;;;;;16.15;14.55;;;;;;;;;;1749379;28;20639;-81
2023/12/02 09:31:19;;;;;;;16.08;14.48;;;;;;;;;;1749770;28;20659;-81
2023/12/02 09:32:25;;;;;;;15.32;13.93;;;;;;;;;;1750348;28;20199;-81
2023/12/02 09:33:18;;;;;;;15.25;13.75;;;;;;;;;;1750072;28;20232;-81
2023/12/02 09:34:31;;;;;;;15.70;13.80;;;;;;;;;;1750059;28;20206;-81
2023/12/02 09:35:22;;;;;;;15.50;14.00;;;;;;;;;;1749882;28;20209;-81
2023/12/02 09:36:27;;;;;;;15.38;13.77;;;;;;;;;;1749672;28;20194;-82
2023/12/02 09:37:34;;;;;;;15.90;14.25;;;;;;;;;;1743335;28;20721;-81
2023/12/02 09:38:27;;;;;;;18.17;16.52;;;;;;;;;;1742529;28;20187;-80
2023/12/02 09:39:56;;;;;;;17.10;15.40;;;;;;;;;;1747989;28;20203;-81
2023/12/02 09:40:58;;;;;;;16.98;15.38;;;;;;;;;;1748145;28;20202;-80
2023/12/02 09:41:50;;;;;;;16.83;15.32;;;;;;;;;;1748110;28;20202;-80
2023/12/02 09:42:41;;;;;;;19.63;17.73;;;;;;;;;;1747818;28;20651;-75
2023/12/02 09:43:33;;;;;;;16.48;14.98;;;;;;;;;;1746961;28;20199;-76
2023/12/02 09:44:29;;;;;;;16.55;14.85;;;;;;;;;;1744962;28;20650;-75
2023/12/02 09:45:21;;;;;;;18.13;16.42;;;;;;;;;;1746625;28;20276;-76
2023/12/02 09:46:20;;;;;;;16.55;14.95;;;;;;;;;;1745753;28;20202;-76
2023/12/02 09:47:18;;;;;;;17.13;15.40;;;;;;;;;;1746637;28;20201;-77
2023/12/02 09:48:12;;;;;;;16.42;14.93;;;;;;;;;;1746648;28;20732;-76
2023/12/02 09:49:14;;;;;;;17.27;15.65;;;;;;;;;;1746806;28;20198;-78
2023/12/02 09:50:09;;;;;;;18.15;16.35;;;;;;;;;;1746770;28;20207;-76
2023/12/02 09:51:03;;;;;;;17.15;15.63;;;;;;;;;;1746854;28;20206;-76
2023/12/02 09:51:59;;;;;;;17.25;15.65;;;;;;;;;;1746806;28;20575;-76
2023/12/02 09:52:58;;;;;;;15.55;14.05;;;;;;;;;;1746809;28;20278;-76
2023/12/02 09:53:54;;;;;;;17.15;15.50;;;;;;;;;;1746735;28;20229;-76
2023/12/02 09:54:49;;;;;;;17.73;15.93;;;;;;;;;;1746602;28;20219;-76
2023/12/02 09:55:44;;;;;;;17.00;15.35;;;;;;;;;;1746875;28;20198;-76
2023/12/02 09:56:39;;;;;;;16.80;15.30;;;;;;;;;;1746372;28;20226;-77
2023/12/02 09:57:33;;;;;;;18.08;15.30;;;;;;;;;;1746626;28;20897;-76
2023/12/02 09:58:28;;;;;;;18.65;16.83;;;;;;;;;;1746734;28;20213;-76
2023/12/02 09:59:22;;;;;;;16.38;14.77;;;;;;;;;;1746796;28;20207;-76
2023/12/02 10:00:19;;;;;;;18.02;15.80;;;;;;;;;;1746796;28;20277;-76
2023/12/02 10:01:15;;;;;;;17.90;16.10;;;;;;;;;;1746694;28;20278;-77
2023/12/02 10:02:15;;;;;;;18.58;16.67;;;;;;;;;;1739894;28;20211;-77
2023/12/02 10:03:19;;;;;;;18.50;16.70;;;;;;;;;;1739844;28;20203;-76
2023/12/02 10:04:20;;;;;;;19.52;17.55;;;;;;;;;;1739968;28;20279;-76
2023/12/02 10:05:11;;;;;;;17.30;15.68;;;;;;;;;;1741203;28;20200;-77
2023/12/02 10:06:06;;;;;;;15.77;14.25;;;;;;;;;;1746372;28;20255;-77
2023/12/02 10:07:02;;;;;;;14.90;13.40;;;;;;;;;;1746690;28;20756;-76
2023/12/02 10:08:03;;;;;;;14.60;13.10;;;;;;;;;;1746635;28;20222;-76
2023/12/02 10:08:56;;;;;;;15.48;14.05;;;;;;;;;;1746701;28;20195;-76
2023/12/02 10:09:53;;;;;;;15.73;14.32;;;;;;;;;;1746703;28;20276;-76
2023/12/02 10:10:50;;;;;;;15.77;14.25;;;;;;;;;;1746709;28;20207;-77
2023/12/02 10:11:44;;;;;;;16.90;15.30;;;;;;;;;;1739844;28;20217;-76
2023/12/02 10:12:41;;;;;;;17.05;15.25;;;;;;;;;;1739790;28;20218;-77
2023/12/02 10:13:37;;;;;;;16.33;14.73;;;;;;;;;;1739837;28;20207;-76
2023/12/02 10:14:30;;;;;;;16.67;15.07;;;;;;;;;;1739796;28;20235;-76
2023/12/02 10:15:23;;;;;;;16.25;14.65;;;;;;;;;;1746132;28;20659;-76
2023/12/02 10:16:14;;;;;;;18.48;16.67;;;;;;;;;;1746269;28;20210;-77
2023/12/02 10:17:08;;;;;;;16.02;14.43;;;;;;;;;;1746537;28;20675;-76
2023/12/02 10:18:01;;;;;;;16.85;15.25;;;;;;;;;;1746506;28;20734;-76
2023/12/02 10:18:53;;;;;;;15.55;14.05;;;;;;;;;;1746614;28;20214;-76
2023/12/02 10:19:50;;;;;;;15.60;14.10;;;;;;;;;;1744950;28;20202;-77
2023/12/02 10:20:43;;;;;;;16.33;14.57;;;;;;;;;;1746283;28;20698;-76
2023/12/02 10:21:35;;;;;;;14.63;13.20;;;;;;;;;;1745942;28;20667;-77
2023/12/02 10:22:29;;;;;;;17.23;15.52;;;;;;;;;;1745864;28;20693;-77
2023/12/02 10:23:24;;;;;;;18.40;16.67;;;;;;;;;;1746172;28;20222;-77
2023/12/02 10:24:20;;;;;;;18.23;16.20;;;;;;;;;;1745943;28;20213;-77
2023/12/02 10:25:14;;;;;;;17.30;15.68;;;;;;;;;;1746386;28;20808;-77
2023/12/02 10:26:06;;;;;;;16.63;14.93;;;;;;;;;;1745230;28;20210;-76
2023/12/02 10:27:03;;;;;;;16.58;14.95;;;;;;;;;;1746434;28;20187;-77
2023/12/02 10:27:56;;;;;;;15.98;14.35;;;;;;;;;;1743021;28;20219;-76
2023/12/02 10:28:52;;;;;;;16.05;14.40;;;;;;;;;;1742001;28;20195;-76
2023/12/02 10:29:50;;;;;;;17.48;15.77;;;;;;;;;;1741805;28;20195;-76
2023/12/02 10:30:45;;;;;;;16.77;14.68;;;;;;;;;;1741379;28;20564;-76
2023/12/02 10:31:39;;;;;;;17.35;15.55;;;;;;;;;;1741605;28;20195;-77
2023/12/02 10:32:34;;;;;;;17.85;16.15;;;;;;;;;;1741867;28;20203;-77
2023/12/02 10:33:28;;;;;;;18.20;16.40;;;;;;;;;;1741939;28;20236;-76
2023/12/02 10:34:23;;;;;;;17.58;15.88;;;;;;;;;;1741939;28;20573;-77
2023/12/02 10:35:17;;;;;;;17.00;15.35;;;;;;;;;;1741938;28;20218;-76
2023/12/02 10:36:10;;;;;;;16.00;14.40;;;;;;;;;;1741419;28;20207;-76
2023/12/02 10:37:03;;;;;;;16.27;14.68;;;;;;;;;;1741958;28;20585;-77
2023/12/02 10:38:01;;;;;;;16.00;14.50;;;;;;;;;;1741834;28;20230;-77
2023/12/02 10:38:57;;;;;;;15.77;14.20;;;;;;;;;;1742000;28;20248;-76
2023/12/02 10:39:51;;;;;;;14.20;12.90;;;;;;;;;;1741929;28;20211;-76
2023/12/02 10:40:47;;;;;;;15.27;13.70;;;;;;;;;;1742024;28;20222;-77
2023/12/02 10:41:43;;;;;;;16.63;14.93;;;;;;;;;;1742029;28;20261;-76
2023/12/02 10:42:38;;;;;;;15.35;13.85;;;;;;;;;;1741984;28;20210;-76
2023/12/02 10:43:34;;;;;;;15.77;14.27;;;;;;;;;;1741865;28;20576;-76
2023/12/02 10:44:28;;;;;;;15.00;13.50;;;;;;;;;;1741930;28;20209;-77
2023/12/02 10:45:20;;;;;;;15.95;14.45;;;;;;;;;;1735574;28;20204;-76
2023/12/02 10:46:12;;;;;;;14.73;13.32;;;;;;;;;;1739755;28;20202;-76
2023/12/02 10:47:05;;;;;;;15.55;14.05;;;;;;;;;;1740412;28;20233;-76
2023/12/02 10:47:59;;;;;;;15.05;13.60;;;;;;;;;;1741805;28;21040;-75
2023/12/02 10:48:50;;;;;;;16.38;14.77;;;;;;;;;;1741935;28;20199;-74
2023/12/02 10:49:42;;;;;;;44.00;39.65;;;;;;;;;;1734863;28;20338;-75
2023/12/02 10:50:35;;;;;;;17.98;16.27;;;;;;;;;;1741326;28;20205;-75
2023/12/02 10:51:28;;;;;;;18.67;16.88;;;;;;;;;;1741739;28;20222;-75
2023/12/02 10:52:21;;;;;;;25.88;23.27;;;;;;;;;;1742061;28;20207;-75
2023/12/02 10:53:12;;;;;;;16.88;15.18;;;;;;;;;;1741942;28;20675;-75
2023/12/02 10:54:06;;;;;;;19.83;17.85;;;;;;;;;;1741989;28;20201;-75
2023/12/02 10:54:58;;;;;;;17.75;15.95;;;;;;;;;;1741761;28;20211;-75
2023/12/02 10:55:55;;;;;;;17.08;15.38;;;;;;;;;;1742049;28;20199;-75
2023/12/02 10:56:48;;;;;;;16.92;15.32;;;;;;;;;;1741421;28;20258;-75
2023/12/02 10:57:40;;;;;;;17.70;15.80;;;;;;;;;;1741710;28;20601;-75
2023/12/02 10:58:32;;;;;;;17.58;15.50;;;;;;;;;;1741829;28;20213;-75
2023/12/02 10:59:24;;;;;;;20.52;18.20;;;;;;;;;;1741811;28;20241;-75
2023/12/02 11:00:16;;;;;;;18.27;16.35;;;;;;;;;;1741816;28;20203;-74
2023/12/02 11:01:09;;;;;;;17.73;15.93;;;;;;;;;;1734924;28;20342;-75
2023/12/02 11:02:07;;;;;;;15.50;13.02;;;;;;;;;;1737993;28;20680;-75
2023/12/02 11:03:02;;;;;;;19.20;17.30;;;;;;;;;;1740398;28;20689;-76
2023/12/02 11:03:59;;;;;;;18.83;16.92;;;;;;;;;;1740522;28;20231;-76
2023/12/02 11:04:53;;;;;;;20.45;17.50;;;;;;;;;;1740576;28;20712;-75
2023/12/02 11:05:50;;;;;;;18.58;16.70;;;;;;;;;;1740951;28;20284;-75
2023/12/02 11:06:42;;;;;;;18.90;16.90;;;;;;;;;;1740598;28;20211;-75
2023/12/02 11:07:34;;;;;;;18.23;16.42;;;;;;;;;;1741340;28;20737;-75
2023/12/02 11:08:32;;;;;;;17.85;16.05;;;;;;;;;;1741741;28;20199;-75
2023/12/02 11:09:30;;;;;;;16.65;14.68;;;;;;;;;;1741683;28;20222;-75
2023/12/02 11:10:29;;;;;;;16.00;14.30;;;;;;;;;;1741595;28;20211;-76